Paulina, Oregon
Current Conditions -  °F | °C
As of 2:20 AM on Thursday 29 Jan 2015 (Local Time) from KS39 Reporting Station
Overcast Overcast  
Wind Chill: 33°   Ceiling: 400
Heat Index: 37°   Visibility: 10mi
Dew Point: 37°   Wind: 6mph
Humidity: 100%   Direction: 150°SSE
Pressure: 30.36"   Gusts: NA
Location:  44.13°N, 119.97°W
Report Text: KS39 291020Z AUTO 15005KT 10SM OVC004 03/03 A3036 RMK AO2
Loading
Personal Weather Stations






























Interactive Weather Map New forecast layout! Learn more

10-Day Weather Forecast

Advertisements
Track Severe Weather on mobile